sensor_id;sensor_type;location;lat;lon;timestamp;pressure;altitude;pressure_sealevel;temperature
18219;BMP180;9234;49.344;11.120;2023-09-07T00:02:19;97976.00;;;14.90
18219;BMP180;9234;49.344;11.120;2023-09-07T00:05:08;97970.00;;;14.90
18219;BMP180;9234;49.344;11.120;2023-09-07T00:07:44;97960.00;;;14.90
18219;BMP180;9234;49.344;11.120;2023-09-07T00:10:12;97964.00;;;14.80
18219;BMP180;9234;49.344;11.120;2023-09-07T00:12:46;97957.00;;;14.80
18219;BMP180;9234;49.344;11.120;2023-09-07T00:15:15;97962.00;;;14.80
18219;BMP180;9234;49.344;11.120;2023-09-07T00:17:44;97972.00;;;14.70
18219;BMP180;9234;49.344;11.120;2023-09-07T00:20:18;97965.00;;;14.70
18219;BMP180;9234;49.344;11.120;2023-09-07T00:22:48;97973.00;;;14.60
18219;BMP180;9234;49.344;11.120;2023-09-07T00:25:19;97971.00;;;14.60
18219;BMP180;9234;49.344;11.120;2023-09-07T00:28:03;97959.00;;;14.50
18219;BMP180;9234;49.344;11.120;2023-09-07T00:30:32;97962.00;;;14.50
18219;BMP180;9234;49.344;11.120;2023-09-07T00:33:00;97954.00;;;14.50
18219;BMP180;9234;49.344;11.120;2023-09-07T00:35:31;97953.00;;;14.40
18219;BMP180;9234;49.344;11.120;2023-09-07T00:38:00;97957.00;;;14.40
18219;BMP180;9234;49.344;11.120;2023-09-07T00:40:29;97944.00;;;14.40
18219;BMP180;9234;49.344;11.120;2023-09-07T00:43:00;97959.00;;;14.30
18219;BMP180;9234;49.344;11.120;2023-09-07T00:45:30;97954.00;;;14.30
18219;BMP180;9234;49.344;11.120;2023-09-07T00:47:58;97963.00;;;14.30
18219;BMP180;9234;49.344;11.120;2023-09-07T00:50:30;97958.00;;;14.20
18219;BMP180;9234;49.344;11.120;2023-09-07T00:53:03;97956.00;;;14.20
18219;BMP180;9234;49.344;11.120;2023-09-07T00:55:35;97965.00;;;14.10
18219;BMP180;9234;49.344;11.120;2023-09-07T00:58:05;97955.00;;;14.10
18219;BMP180;9234;49.344;11.120;2023-09-07T01:00:35;97946.00;;;14.10
18219;BMP180;9234;49.344;11.120;2023-09-07T01:03:05;97951.00;;;14.00
18219;BMP180;9234;49.344;11.120;2023-09-07T01:05:49;97964.00;;;14.00
18219;BMP180;9234;49.344;11.120;2023-09-07T01:08:24;97959.00;;;14.00
18219;BMP180;9234;49.344;11.120;2023-09-07T01:10:53;97948.00;;;13.90
18219;BMP180;9234;49.344;11.120;2023-09-07T01:13:21;97936.00;;;13.90
18219;BMP180;9234;49.344;11.120;2023-09-07T01:15:52;97940.00;;;13.90
18219;BMP180;9234;49.344;11.120;2023-09-07T01:18:21;97940.00;;;13.90
18219;BMP180;9234;49.344;11.120;2023-09-07T01:20:53;97952.00;;;13.80
18219;BMP180;9234;49.344;11.120;2023-09-07T01:23:24;97946.00;;;13.80
18219;BMP180;9234;49.344;11.120;2023-09-07T01:25:53;97939.00;;;13.70
18219;BMP180;9234;49.344;11.120;2023-09-07T01:28:23;97935.00;;;13.70
18219;BMP180;9234;49.344;11.120;2023-09-07T01:30:52;97940.00;;;13.70
18219;BMP180;9234;49.344;11.120;2023-09-07T01:33:20;97940.00;;;13.60
18219;BMP180;9234;49.344;11.120;2023-09-07T01:35:50;97929.00;;;13.60
18219;BMP180;9234;49.344;11.120;2023-09-07T01:38:18;97938.00;;;13.60
18219;BMP180;9234;49.344;11.120;2023-09-07T01:40:48;97928.00;;;13.60
18219;BMP180;9234;49.344;11.120;2023-09-07T01:43:16;97946.00;;;13.50
18219;BMP180;9234;49.344;11.120;2023-09-07T01:45:45;97943.00;;;13.50
18219;BMP180;9234;49.344;11.120;2023-09-07T01:48:14;97942.00;;;13.50
18219;BMP180;9234;49.344;11.120;2023-09-07T01:50:43;97943.00;;;13.40
18219;BMP180;9234;49.344;11.120;2023-09-07T01:53:11;97947.00;;;13.40
18219;BMP180;9234;49.344;11.120;2023-09-07T01:55:40;97937.00;;;13.40
18219;BMP180;9234;49.344;11.120;2023-09-07T01:58:10;97939.00;;;13.40
18219;BMP180;9234;49.344;11.120;2023-09-07T02:00:38;97933.00;;;13.30
18219;BMP180;9234;49.344;11.120;2023-09-07T02:03:07;97942.00;;;13.30
18219;BMP180;9234;49.344;11.120;2023-09-07T02:05:35;97926.00;;;13.20
18219;BMP180;9234;49.344;11.120;2023-09-07T02:08:05;97934.00;;;13.20
18219;BMP180;9234;49.344;11.120;2023-09-07T02:10:33;97927.00;;;13.20
18219;BMP180;9234;49.344;11.120;2023-09-07T02:13:02;97930.00;;;13.20
18219;BMP180;9234;49.344;11.120;2023-09-07T02:15:32;97936.00;;;13.10
18219;BMP180;9234;49.344;11.120;2023-09-07T02:18:01;97936.00;;;13.10
18219;BMP180;9234;49.344;11.120;2023-09-07T02:20:31;97935.00;;;13.10
18219;BMP180;9234;49.344;11.120;2023-09-07T02:22:59;97939.00;;;13.10
18219;BMP180;9234;49.344;11.120;2023-09-07T02:25:28;97949.00;;;13.00
18219;BMP180;9234;49.344;11.120;2023-09-07T02:27:58;97940.00;;;13.00
18219;BMP180;9234;49.344;11.120;2023-09-07T02:30:26;97935.00;;;13.00
18219;BMP180;9234;49.344;11.120;2023-09-07T02:32:56;97944.00;;;12.90
18219;BMP180;9234;49.344;11.120;2023-09-07T02:35:26;97945.00;;;12.90
18219;BMP180;9234;49.344;11.120;2023-09-07T02:37:55;97939.00;;;12.90
18219;BMP180;9234;49.344;11.120;2023-09-07T02:40:23;97935.00;;;12.90
18219;BMP180;9234;49.344;11.120;2023-09-07T02:42:51;97946.00;;;12.90
18219;BMP180;9234;49.344;11.120;2023-09-07T02:45:20;97938.00;;;12.80
18219;BMP180;9234;49.344;11.120;2023-09-07T02:47:48;97928.00;;;12.80
18219;BMP180;9234;49.344;11.120;2023-09-07T02:50:19;97938.00;;;12.80
18219;BMP180;9234;49.344;11.120;2023-09-07T02:52:48;97940.00;;;12.70
18219;BMP180;9234;49.344;11.120;2023-09-07T02:55:16;97954.00;;;12.70
18219;BMP180;9234;49.344;11.120;2023-09-07T02:57:44;97926.00;;;12.70
18219;BMP180;9234;49.344;11.120;2023-09-07T03:00:13;97934.00;;;12.70
18219;BMP180;9234;49.344;11.120;2023-09-07T03:02:45;97934.00;;;12.60
18219;BMP180;9234;49.344;11.120;2023-09-07T03:05:13;97943.00;;;12.60
18219;BMP180;9234;49.344;11.120;2023-09-07T03:07:46;97947.00;;;12.60
18219;BMP180;9234;49.344;11.120;2023-09-07T03:10:16;97948.00;;;12.60
18219;BMP180;9234;49.344;11.120;2023-09-07T03:12:45;97945.00;;;12.50
18219;BMP180;9234;49.344;11.120;2023-09-07T03:15:16;97948.00;;;12.50
18219;BMP180;9234;49.344;11.120;2023-09-07T03:17:45;97949.00;;;12.50
18219;BMP180;9234;49.344;11.120;2023-09-07T03:20:14;97928.00;;;12.50
18219;BMP180;9234;49.344;11.120;2023-09-07T03:22:48;97935.00;;;12.40
18219;BMP180;9234;49.344;11.120;2023-09-07T03:25:16;97949.00;;;12.40
18219;BMP180;9234;49.344;11.120;2023-09-07T03:27:45;97939.00;;;12.40
18219;BMP180;9234;49.344;11.120;2023-09-07T03:30:16;97932.00;;;12.30
18219;BMP180;9234;49.344;11.120;2023-09-07T03:32:44;97936.00;;;12.30
18219;BMP180;9234;49.344;11.120;2023-09-07T03:35:13;97927.00;;;12.30
18219;BMP180;9234;49.344;11.120;2023-09-07T03:37:43;97936.00;;;12.30
18219;BMP180;9234;49.344;11.120;2023-09-07T03:40:12;97951.00;;;12.20
18219;BMP180;9234;49.344;11.120;2023-09-07T03:42:41;97939.00;;;12.20
18219;BMP180;9234;49.344;11.120;2023-09-07T03:45:11;97937.00;;;12.20
18219;BMP180;9234;49.344;11.120;2023-09-07T03:47:39;97935.00;;;12.10
18219;BMP180;9234;49.344;11.120;2023-09-07T03:50:10;97941.00;;;12.10
18219;BMP180;9234;49.344;11.120;2023-09-07T03:52:38;97950.00;;;12.10
18219;BMP180;9234;49.344;11.120;2023-09-07T03:55:08;97939.00;;;12.10
18219;BMP180;9234;49.344;11.120;2023-09-07T03:57:39;97948.00;;;12.00
18219;BMP180;9234;49.344;11.120;2023-09-07T04:00:10;97951.00;;;12.00
18219;BMP180;9234;49.344;11.120;2023-09-07T04:02:47;97944.00;;;12.00
18219;BMP180;9234;49.344;11.120;2023-09-07T04:05:15;97947.00;;;12.00
18219;BMP180;9234;49.344;11.120;2023-09-07T04:07:45;97954.00;;;12.00
18219;BMP180;9234;49.344;11.120;2023-09-07T04:10:14;97951.00;;;11.90
18219;BMP180;9234;49.344;11.120;2023-09-07T04:12:43;97958.00;;;11.90
18219;BMP180;9234;49.344;11.120;2023-09-07T04:15:11;97945.00;;;11.90
18219;BMP180;9234;49.344;11.120;2023-09-07T04:17:40;97945.00;;;11.80
18219;BMP180;9234;49.344;11.120;2023-09-07T04:20:12;97935.00;;;11.80
18219;BMP180;9234;49.344;11.120;2023-09-07T04:22:40;97934.00;;;11.80
18219;BMP180;9234;49.344;11.120;2023-09-07T04:25:09;97945.00;;;11.70
18219;BMP180;9234;49.344;11.120;2023-09-07T04:27:37;97957.00;;;11.70
18219;BMP180;9234;49.344;11.120;2023-09-07T04:30:09;97951.00;;;11.70
18219;BMP180;9234;49.344;11.120;2023-09-07T04:32:38;97938.00;;;11.70
18219;BMP180;9234;49.344;11.120;2023-09-07T04:35:07;97959.00;;;11.70
18219;BMP180;9234;49.344;11.120;2023-09-07T04:37:37;97947.00;;;11.60
18219;BMP180;9234;49.344;11.120;2023-09-07T04:40:06;97951.00;;;11.60
18219;BMP180;9234;49.344;11.120;2023-09-07T04:42:35;97953.00;;;11.60
18219;BMP180;9234;49.344;11.120;2023-09-07T04:45:10;97949.00;;;11.60
18219;BMP180;9234;49.344;11.120;2023-09-07T04:47:38;97963.00;;;11.60
18219;BMP180;9234;49.344;11.120;2023-09-07T04:50:07;97957.00;;;11.50
18219;BMP180;9234;49.344;11.120;2023-09-07T04:52:36;97967.00;;;11.60
18219;BMP180;9234;49.344;11.120;2023-09-07T04:55:05;97960.00;;;11.50
18219;BMP180;9234;49.344;11.120;2023-09-07T04:57:36;97960.00;;;11.50
18219;BMP180;9234;49.344;11.120;2023-09-07T05:00:08;97971.00;;;11.50
18219;BMP180;9234;49.344;11.120;2023-09-07T05:02:37;97965.00;;;11.50
18219;BMP180;9234;49.344;11.120;2023-09-07T05:05:09;97965.00;;;11.50
18219;BMP180;9234;49.344;11.120;2023-09-07T05:07:37;97976.00;;;11.50
18219;BMP180;9234;49.344;11.120;2023-09-07T05:10:07;97967.00;;;11.60
18219;BMP180;9234;49.344;11.120;2023-09-07T05:12:39;97977.00;;;11.60
18219;BMP180;9234;49.344;11.120;2023-09-07T05:15:10;97984.00;;;11.60
18219;BMP180;9234;49.344;11.120;2023-09-07T05:17:38;97974.00;;;11.60
18219;BMP180;9234;49.344;11.120;2023-09-07T05:20:08;97985.00;;;11.70
18219;BMP180;9234;49.344;11.120;2023-09-07T05:22:37;97970.00;;;11.70
18219;BMP180;9234;49.344;11.120;2023-09-07T05:25:09;97973.00;;;11.70
18219;BMP180;9234;49.344;11.120;2023-09-07T05:27:38;97978.00;;;11.80
18219;BMP180;9234;49.344;11.120;2023-09-07T05:30:09;97982.00;;;11.80
18219;BMP180;9234;49.344;11.120;2023-09-07T05:32:37;97981.00;;;11.90
18219;BMP180;9234;49.344;11.120;2023-09-07T05:35:07;97984.00;;;11.90
18219;BMP180;9234;49.344;11.120;2023-09-07T05:37:37;97996.00;;;12.00
18219;BMP180;9234;49.344;11.120;2023-09-07T05:40:08;97991.00;;;12.00
18219;BMP180;9234;49.344;11.120;2023-09-07T05:42:36;97994.00;;;12.10
18219;BMP180;9234;49.344;11.120;2023-09-07T05:45:08;97992.00;;;12.10
18219;BMP180;9234;49.344;11.120;2023-09-07T05:47:37;97993.00;;;12.20
18219;BMP180;9234;49.344;11.120;2023-09-07T05:50:07;97996.00;;;12.30
18219;BMP180;9234;49.344;11.120;2023-09-07T05:52:35;98002.00;;;12.30
18219;BMP180;9234;49.344;11.120;2023-09-07T05:55:05;98003.00;;;12.40
18219;BMP180;9234;49.344;11.120;2023-09-07T05:57:34;98003.00;;;12.50
18219;BMP180;9234;49.344;11.120;2023-09-07T06:00:04;97985.00;;;12.60
18219;BMP180;9234;49.344;11.120;2023-09-07T06:02:40;98002.00;;;12.70
18219;BMP180;9234;49.344;11.120;2023-09-07T06:05:11;97996.00;;;12.70
18219;BMP180;9234;49.344;11.120;2023-09-07T06:07:39;97999.00;;;12.80
18219;BMP180;9234;49.344;11.120;2023-09-07T06:10:09;98005.00;;;12.90
18219;BMP180;9234;49.344;11.120;2023-09-07T06:12:38;98001.00;;;13.00
18219;BMP180;9234;49.344;11.120;2023-09-07T06:15:08;97997.00;;;13.10
18219;BMP180;9234;49.344;11.120;2023-09-07T06:17:37;98000.00;;;13.20
18219;BMP180;9234;49.344;11.120;2023-09-07T06:20:09;97989.00;;;13.30
18219;BMP180;9234;49.344;11.120;2023-09-07T06:22:38;97986.00;;;13.40
18219;BMP180;9234;49.344;11.120;2023-09-07T06:25:07;98001.00;;;13.50
18219;BMP180;9234;49.344;11.120;2023-09-07T06:27:35;97996.00;;;13.60
18219;BMP180;9234;49.344;11.120;2023-09-07T06:30:07;97994.00;;;13.70
18219;BMP180;9234;49.344;11.120;2023-09-07T06:32:38;97995.00;;;13.80
18219;BMP180;9234;49.344;11.120;2023-09-07T06:35:10;98000.00;;;14.00
18219;BMP180;9234;49.344;11.120;2023-09-07T06:37:38;97989.00;;;14.10
18219;BMP180;9234;49.344;11.120;2023-09-07T06:40:11;98005.00;;;14.20
18219;BMP180;9234;49.344;11.120;2023-09-07T06:42:41;97993.00;;;14.30
18219;BMP180;9234;49.344;11.120;2023-09-07T06:45:14;98004.00;;;14.40
18219;BMP180;9234;49.344;11.120;2023-09-07T06:47:42;97998.00;;;14.50
18219;BMP180;9234;49.344;11.120;2023-09-07T06:50:12;98005.00;;;14.70
18219;BMP180;9234;49.344;11.120;2023-09-07T06:52:41;97996.00;;;14.80
18219;BMP180;9234;49.344;11.120;2023-09-07T06:55:09;97990.00;;;14.90
18219;BMP180;9234;49.344;11.120;2023-09-07T06:57:38;98008.00;;;15.10
18219;BMP180;9234;49.344;11.120;2023-09-07T07:00:08;97994.00;;;15.20
18219;BMP180;9234;49.344;11.120;2023-09-07T07:02:37;98003.00;;;15.40
18219;BMP180;9234;49.344;11.120;2023-09-07T07:05:07;98005.00;;;15.50
18219;BMP180;9234;49.344;11.120;2023-09-07T07:07:39;97986.00;;;15.70
18219;BMP180;9234;49.344;11.120;2023-09-07T07:10:08;97995.00;;;15.80
18219;BMP180;9234;49.344;11.120;2023-09-07T07:12:39;97996.00;;;16.00
18219;BMP180;9234;49.344;11.120;2023-09-07T07:15:09;98000.00;;;16.10
18219;BMP180;9234;49.344;11.120;2023-09-07T07:17:39;98006.00;;;16.30
18219;BMP180;9234;49.344;11.120;2023-09-07T07:20:09;97999.00;;;16.40
18219;BMP180;9234;49.344;11.120;2023-09-07T07:22:39;98004.00;;;16.60
18219;BMP180;9234;49.344;11.120;2023-09-07T07:25:10;98016.00;;;16.70
18219;BMP180;9234;49.344;11.120;2023-09-07T07:27:39;98000.00;;;16.90
18219;BMP180;9234;49.344;11.120;2023-09-07T07:30:08;98002.00;;;17.00
18219;BMP180;9234;49.344;11.120;2023-09-07T07:32:38;98008.00;;;17.20
18219;BMP180;9234;49.344;11.120;2023-09-07T07:35:07;97999.00;;;17.40
18219;BMP180;9234;49.344;11.120;2023-09-07T07:37:36;98006.00;;;17.50
18219;BMP180;9234;49.344;11.120;2023-09-07T07:40:09;98011.00;;;17.70
18219;BMP180;9234;49.344;11.120;2023-09-07T07:42:37;98004.00;;;17.90
18219;BMP180;9234;49.344;11.120;2023-09-07T07:45:08;97997.00;;;18.00
18219;BMP180;9234;49.344;11.120;2023-09-07T07:47:37;97990.00;;;18.20
18219;BMP180;9234;49.344;11.120;2023-09-07T07:50:07;97996.00;;;18.40
18219;BMP180;9234;49.344;11.120;2023-09-07T07:52:35;97990.00;;;18.60
18219;BMP180;9234;49.344;11.120;2023-09-07T07:55:06;97996.00;;;18.80
18219;BMP180;9234;49.344;11.120;2023-09-07T07:57:35;97985.00;;;18.90
18219;BMP180;9234;49.344;11.120;2023-09-07T08:00:05;97984.00;;;19.10
18219;BMP180;9234;49.344;11.120;2023-09-07T08:02:40;97980.00;;;19.30
18219;BMP180;9234;49.344;11.120;2023-09-07T08:05:11;97979.00;;;19.50
18219;BMP180;9234;49.344;11.120;2023-09-07T08:07:39;97995.00;;;19.70
18219;BMP180;9234;49.344;11.120;2023-09-07T08:10:09;97989.00;;;19.80
18219;BMP180;9234;49.344;11.120;2023-09-07T08:12:38;97994.00;;;20.00
18219;BMP180;9234;49.344;11.120;2023-09-07T08:15:07;97986.00;;;20.20
18219;BMP180;9234;49.344;11.120;2023-09-07T08:17:36;97986.00;;;20.40
18219;BMP180;9234;49.344;11.120;2023-09-07T08:20:06;97987.00;;;20.60
18219;BMP180;9234;49.344;11.120;2023-09-07T08:22:38;97982.00;;;20.80
18219;BMP180;9234;49.344;11.120;2023-09-07T08:25:13;97989.00;;;21.00
18219;BMP180;9234;49.344;11.120;2023-09-07T08:27:42;97988.00;;;21.10
18219;BMP180;9234;49.344;11.120;2023-09-07T08:30:12;97989.00;;;21.30
18219;BMP180;9234;49.344;11.120;2023-09-07T08:32:42;97990.00;;;21.50
18219;BMP180;9234;49.344;11.120;2023-09-07T08:35:12;97981.00;;;21.70
18219;BMP180;9234;49.344;11.120;2023-09-07T08:37:42;97978.00;;;21.90
18219;BMP180;9234;49.344;11.120;2023-09-07T08:40:12;97987.00;;;22.10
18219;BMP180;9234;49.344;11.120;2023-09-07T08:42:43;97983.00;;;22.20
18219;BMP180;9234;49.344;11.120;2023-09-07T08:45:14;97985.00;;;22.40
18219;BMP180;9234;49.344;11.120;2023-09-07T08:47:47;97977.00;;;22.60
18219;BMP180;9234;49.344;11.120;2023-09-07T08:50:18;97991.00;;;22.80
18219;BMP180;9234;49.344;11.120;2023-09-07T08:52:52;97979.00;;;23.00
18219;BMP180;9234;49.344;11.120;2023-09-07T08:55:23;97988.00;;;23.20
18219;BMP180;9234;49.344;11.120;2023-09-07T08:57:52;97987.00;;;23.40
18219;BMP180;9234;49.344;11.120;2023-09-07T09:00:20;97989.00;;;23.60
18219;BMP180;9234;49.344;11.120;2023-09-07T09:02:49;97989.00;;;23.70
18219;BMP180;9234;49.344;11.120;2023-09-07T09:05:23;97984.00;;;23.90
18219;BMP180;9234;49.344;11.120;2023-09-07T09:08:01;97981.00;;;24.10
18219;BMP180;9234;49.344;11.120;2023-09-07T09:10:32;97987.00;;;24.30
18219;BMP180;9234;49.344;11.120;2023-09-07T09:13:00;97994.00;;;24.40
18219;BMP180;9234;49.344;11.120;2023-09-07T09:15:29;97991.00;;;24.50
18219;BMP180;9234;49.344;11.120;2023-09-07T09:17:58;97985.00;;;24.70
18219;BMP180;9234;49.344;11.120;2023-09-07T09:20:26;97982.00;;;24.90
18219;BMP180;9234;49.344;11.120;2023-09-07T09:22:55;97987.00;;;25.00
18219;BMP180;9234;49.344;11.120;2023-09-07T09:25:24;97982.00;;;25.20
18219;BMP180;9234;49.344;11.120;2023-09-07T09:27:55;97985.00;;;25.40
18219;BMP180;9234;49.344;11.120;2023-09-07T09:30:24;97980.00;;;25.60
18219;BMP180;9234;49.344;11.120;2023-09-07T09:32:54;97985.00;;;25.80
18219;BMP180;9234;49.344;11.120;2023-09-07T09:35:22;97988.00;;;26.00
18219;BMP180;9234;49.344;11.120;2023-09-07T09:37:51;97990.00;;;26.20
18219;BMP180;9234;49.344;11.120;2023-09-07T09:40:20;97988.00;;;26.40
18219;BMP180;9234;49.344;11.120;2023-09-07T09:42:56;97980.00;;;26.60
18219;BMP180;9234;49.344;11.120;2023-09-07T09:45:27;97983.00;;;26.70
18219;BMP180;9234;49.344;11.120;2023-09-07T09:47:56;97974.00;;;26.80
18219;BMP180;9234;49.344;11.120;2023-09-07T09:50:27;97979.00;;;26.90
18219;BMP180;9234;49.344;11.120;2023-09-07T09:52:57;97963.00;;;27.00
18219;BMP180;9234;49.344;11.120;2023-09-07T09:55:26;97966.00;;;27.20
18219;BMP180;9234;49.344;11.120;2023-09-07T09:57:57;97969.00;;;27.30
18219;BMP180;9234;49.344;11.120;2023-09-07T10:00:25;97975.00;;;27.40
18219;BMP180;9234;49.344;11.120;2023-09-07T10:03:02;97961.00;;;27.60
18219;BMP180;9234;49.344;11.120;2023-09-07T10:05:32;97966.00;;;27.80
18219;BMP180;9234;49.344;11.120;2023-09-07T10:08:03;97969.00;;;27.90
18219;BMP180;9234;49.344;11.120;2023-09-07T10:10:35;97958.00;;;28.10
18219;BMP180;9234;49.344;11.120;2023-09-07T10:13:06;97968.00;;;28.20
18219;BMP180;9234;49.344;11.120;2023-09-07T10:15:35;97957.00;;;28.30
18219;BMP180;9234;49.344;11.120;2023-09-07T10:18:08;97962.00;;;28.40
18219;BMP180;9234;49.344;11.120;2023-09-07T10:20:54;97959.00;;;28.50
18219;BMP180;9234;49.344;11.120;2023-09-07T10:23:36;97955.00;;;28.80
18219;BMP180;9234;49.344;11.120;2023-09-07T10:26:11;97949.00;;;28.90
18219;BMP180;9234;49.344;11.120;2023-09-07T10:28:42;97952.00;;;29.00
18219;BMP180;9234;49.344;11.120;2023-09-07T10:31:16;97947.00;;;29.10
18219;BMP180;9234;49.344;11.120;2023-09-07T10:33:46;97944.00;;;29.20
18219;BMP180;9234;49.344;11.120;2023-09-07T10:36:24;97943.00;;;29.40
18219;BMP180;9234;49.344;11.120;2023-09-07T10:38:55;97947.00;;;29.50
18219;BMP180;9234;49.344;11.120;2023-09-07T10:41:24;97944.00;;;29.70
18219;BMP180;9234;49.344;11.120;2023-09-07T10:43:54;97941.00;;;29.80
18219;BMP180;9234;49.344;11.120;2023-09-07T10:46:24;97936.00;;;30.00
18219;BMP180;9234;49.344;11.120;2023-09-07T10:48:53;97944.00;;;30.10
18219;BMP180;9234;49.344;11.120;2023-09-07T10:51:23;97930.00;;;30.30
18219;BMP180;9234;49.344;11.120;2023-09-07T10:53:51;97939.00;;;30.40
18219;BMP180;9234;49.344;11.120;2023-09-07T10:56:25;97939.00;;;30.50
18219;BMP180;9234;49.344;11.120;2023-09-07T10:58:55;97935.00;;;30.60
18219;BMP180;9234;49.344;11.120;2023-09-07T11:01:23;97936.00;;;30.80
18219;BMP180;9234;49.344;11.120;2023-09-07T11:03:52;97936.00;;;30.90
18219;BMP180;9234;49.344;11.120;2023-09-07T11:06:21;97925.00;;;31.00
18219;BMP180;9234;49.344;11.120;2023-09-07T11:08:53;97939.00;;;31.10
18219;BMP180;9234;49.344;11.120;2023-09-07T11:11:21;97924.00;;;31.20
18219;BMP180;9234;49.344;11.120;2023-09-07T11:13:50;97931.00;;;31.30
18219;BMP180;9234;49.344;11.120;2023-09-07T11:16:24;97920.00;;;31.40
18219;BMP180;9234;49.344;11.120;2023-09-07T11:18:53;97925.00;;;31.40
18219;BMP180;9234;49.344;11.120;2023-09-07T11:21:23;97915.00;;;31.40
18219;BMP180;9234;49.344;11.120;2023-09-07T11:23:52;97925.00;;;31.40
18219;BMP180;9234;49.344;11.120;2023-09-07T11:26:20;97926.00;;;31.50
18219;BMP180;9234;49.344;11.120;2023-09-07T11:28:50;97912.00;;;31.70
18219;BMP180;9234;49.344;11.120;2023-09-07T11:31:20;97923.00;;;31.90
18219;BMP180;9234;49.344;11.120;2023-09-07T11:33:49;97922.00;;;31.90
18219;BMP180;9234;49.344;11.120;2023-09-07T11:36:17;97928.00;;;32.00
18219;BMP180;9234;49.344;11.120;2023-09-07T11:38:45;97928.00;;;32.20
18219;BMP180;9234;49.344;11.120;2023-09-07T11:41:14;97933.00;;;32.40
18219;BMP180;9234;49.344;11.120;2023-09-07T11:43:42;97922.00;;;32.60
18219;BMP180;9234;49.344;11.120;2023-09-07T11:46:12;97923.00;;;32.90
18219;BMP180;9234;49.344;11.120;2023-09-07T11:48:42;97927.00;;;33.10
18219;BMP180;9234;49.344;11.120;2023-09-07T11:51:10;97933.00;;;33.40
18219;BMP180;9234;49.344;11.120;2023-09-07T11:53:38;97921.00;;;33.70
18219;BMP180;9234;49.344;11.120;2023-09-07T11:56:06;97926.00;;;34.00
18219;BMP180;9234;49.344;11.120;2023-09-07T11:58:35;97922.00;;;34.30
18219;BMP180;9234;49.344;11.120;2023-09-07T12:01:03;97922.00;;;34.50
18219;BMP180;9234;49.344;11.120;2023-09-07T12:03:33;97926.00;;;34.80
18219;BMP180;9234;49.344;11.120;2023-09-07T12:06:04;97913.00;;;35.20
18219;BMP180;9234;49.344;11.120;2023-09-07T12:08:32;97921.00;;;35.40
18219;BMP180;9234;49.344;11.120;2023-09-07T12:11:00;97916.00;;;35.50
18219;BMP180;9234;49.344;11.120;2023-09-07T12:13:29;97916.00;;;35.80
18219;BMP180;9234;49.344;11.120;2023-09-07T12:15:58;97909.00;;;36.00
18219;BMP180;9234;49.344;11.120;2023-09-07T12:18:28;97907.00;;;36.40
18219;BMP180;9234;49.344;11.120;2023-09-07T12:20:57;97909.00;;;36.90
18219;BMP180;9234;49.344;11.120;2023-09-07T12:23:27;97907.00;;;37.40
18219;BMP180;9234;49.344;11.120;2023-09-07T12:25:56;97909.00;;;37.50
18219;BMP180;9234;49.344;11.120;2023-09-07T12:28:25;97909.00;;;37.40
18219;BMP180;9234;49.344;11.120;2023-09-07T12:30:54;97903.00;;;37.50
18219;BMP180;9234;49.344;11.120;2023-09-07T12:33:22;97905.00;;;37.80
18219;BMP180;9234;49.344;11.120;2023-09-07T12:35:50;97900.00;;;38.10
18219;BMP180;9234;49.344;11.120;2023-09-07T12:38:19;97894.00;;;38.40
18219;BMP180;9234;49.344;11.120;2023-09-07T12:40:50;97902.00;;;38.90
18219;BMP180;9234;49.344;11.120;2023-09-07T12:43:19;97897.00;;;39.30
18219;BMP180;9234;49.344;11.120;2023-09-07T12:45:47;97887.00;;;39.50
18219;BMP180;9234;49.344;11.120;2023-09-07T12:48:16;97892.00;;;39.80
18219;BMP180;9234;49.344;11.120;2023-09-07T12:50:44;97887.00;;;39.80
18219;BMP180;9234;49.344;11.120;2023-09-07T12:53:12;97893.00;;;40.10
18219;BMP180;9234;49.344;11.120;2023-09-07T12:55:40;97890.00;;;40.50
18219;BMP180;9234;49.344;11.120;2023-09-07T12:58:10;97891.00;;;40.90
18219;BMP180;9234;49.344;11.120;2023-09-07T13:00:38;97885.00;;;41.20
18219;BMP180;9234;49.344;11.120;2023-09-07T13:03:07;97891.00;;;41.40
18219;BMP180;9234;49.344;11.120;2023-09-07T13:05:35;97882.00;;;41.70
18219;BMP180;9234;49.344;11.120;2023-09-07T13:08:04;97879.00;;;41.80
18219;BMP180;9234;49.344;11.120;2023-09-07T13:10:33;97890.00;;;41.90
18219;BMP180;9234;49.344;11.120;2023-09-07T13:13:02;97880.00;;;42.10
18219;BMP180;9234;49.344;11.120;2023-09-07T13:15:31;97881.00;;;42.30
18219;BMP180;9234;49.344;11.120;2023-09-07T13:18:00;97872.00;;;42.60
18219;BMP180;9234;49.344;11.120;2023-09-07T13:20:28;97884.00;;;42.90
18219;BMP180;9234;49.344;11.120;2023-09-07T13:22:57;97883.00;;;42.90
18219;BMP180;9234;49.344;11.120;2023-09-07T13:25:25;97874.00;;;42.80
18219;BMP180;9234;49.344;11.120;2023-09-07T13:27:54;97880.00;;;42.90
18219;BMP180;9234;49.344;11.120;2023-09-07T13:30:23;97874.00;;;43.10
18219;BMP180;9234;49.344;11.120;2023-09-07T13:32:53;97867.00;;;43.40
18219;BMP180;9234;49.344;11.120;2023-09-07T13:35:22;97872.00;;;43.60
18219;BMP180;9234;49.344;11.120;2023-09-07T13:37:50;97867.00;;;43.80
18219;BMP180;9234;49.344;11.120;2023-09-07T13:40:18;97871.00;;;43.90
18219;BMP180;9234;49.344;11.120;2023-09-07T13:42:51;97869.00;;;43.90
18219;BMP180;9234;49.344;11.120;2023-09-07T13:45:19;97861.00;;;43.90
18219;BMP180;9234;49.344;11.120;2023-09-07T13:47:48;97861.00;;;43.90
18219;BMP180;9234;49.344;11.120;2023-09-07T13:50:17;97861.00;;;44.10
18219;BMP180;9234;49.344;11.120;2023-09-07T13:52:47;97865.00;;;44.30
18219;BMP180;9234;49.344;11.120;2023-09-07T13:55:15;97863.00;;;44.50
18219;BMP180;9234;49.344;11.120;2023-09-07T13:57:44;97863.00;;;44.90
18219;BMP180;9234;49.344;11.120;2023-09-07T14:00:15;97857.00;;;45.20
18219;BMP180;9234;49.344;11.120;2023-09-07T14:02:43;97859.00;;;45.40
18219;BMP180;9234;49.344;11.120;2023-09-07T14:05:11;97867.00;;;45.50
18219;BMP180;9234;49.344;11.120;2023-09-07T14:07:41;97856.00;;;45.70
18219;BMP180;9234;49.344;11.120;2023-09-07T14:10:10;97868.00;;;45.80
18219;BMP180;9234;49.344;11.120;2023-09-07T14:12:38;97854.00;;;45.70
18219;BMP180;9234;49.344;11.120;2023-09-07T14:15:07;97864.00;;;45.80
18219;BMP180;9234;49.344;11.120;2023-09-07T14:17:36;97859.00;;;45.90
18219;BMP180;9234;49.344;11.120;2023-09-07T14:20:05;97856.00;;;45.80
18219;BMP180;9234;49.344;11.120;2023-09-07T14:22:34;97859.00;;;45.70
18219;BMP180;9234;49.344;11.120;2023-09-07T14:25:04;97860.00;;;45.80